Island Supplier — WCZ2444 — position and weather

sailwx.info

Track history (hours):
 
Tides and Currents Weather Stations Pressure Air Temp Water Temp Dewpoint Dewpoint Depression Visibility Wind Speed Wind Dir Waves Ship Positions

Island Supplier

Owner: Santa Catalina Island Resort Services, Inc., AVALON, CA. More information available from US FCC via Universal Licensing System and Coast Guard Vessel Documentation Center.

Last reported at 2016-May-12 16:25 UTC. Time now 2016-May-30 10:41 UTC.
Position N 33°28' W 118°29'.
Warning: this ship's position is 17 days out of date.

Length 22 m; draft 1 m.

Type: Cargo ship. MMSI: 366765690.

Date/timePositionNaut miles runAvg speedWind from/ knotsBaromVisibWave heightAir tempDewpointWater temp
2016-May-12 16:25N 33°28' W 118°29'14 6.5
2016-May-12 14:15N 33°39' W 118°18'5 5.1
2016-May-12 13:19N 33°43' W 118°16'2 0.0
2016-May-11 00:25N 33°45' W 118°16'  
2016-May-06 15:30N 33°44' W 118°17'1 0.0
2016-May-05 13:14N 33°44' W 118°16'1 0.0
2016-May-04 02:13N 33°45' W 118°16'0 0.0
2016-May-04 01:33N 33°45' W 118°16'5 4.4
2016-May-04 00:28N 33°40' W 118°17'7 6.6
2016-May-03 23:24N 33°35' W 118°22'6 6.7
2016-May-03 22:31N 33°30' W 118°27'  
Track history (hours):
 
Tides and Currents Weather Stations Pressure Air Temp Water Temp Dewpoint Dewpoint Depression Visibility Wind Speed Wind Dir Waves Ship Positions

Island Supplier

Owner: Santa Catalina Island Resort Services, Inc., AVALON, CA. More information available from US FCC via Universal Licensing System and Coast Guard Vessel Documentation Center.

Last reported at 2016-May-12 16:25 UTC. Time now 2016-May-30 10:41 UTC.
Position N 33°28' W 118°29'.
Warning: this ship's position is 17 days out of date.

Length 22 m; draft 1 m.

Type: Cargo ship. MMSI: 366765690.

Date/timePositionNaut miles runAvg speedWind from/ knotsBaromVisibWave heightAir tempDewpointWater temp
2016-May-12 16:25N 33°28' W 118°29'14 6.5
2016-May-12 14:15N 33°39' W 118°18'5 5.1
2016-May-12 13:19N 33°43' W 118°16'2 0.0
2016-May-11 00:25N 33°45' W 118°16'  
2016-May-06 15:30N 33°44' W 118°17'1 0.0
2016-May-05 13:14N 33°44' W 118°16'1 0.0
2016-May-04 02:13N 33°45' W 118°16'0 0.0
2016-May-04 01:33N 33°45' W 118°16'5 4.4
2016-May-04 00:28N 33°40' W 118°17'7 6.6
2016-May-03 23:24N 33°35' W 118°22'6 6.7
2016-May-03 22:31N 33°30' W 118°27'  

Dump ship's entire track history